Time,TemperatureF,DewpointF,PressureIn,WindDirection,WindDirectionDegrees,WindSpeedMPH,WindSpeedGustMPH,Humidity,HourlyPrecipIn,Conditions,Clouds,dailyrainin,SolarRadiationWatts/m^2,SoftwareType,DateUTC
2013-04-30 00:04:00,64.4,61.1,29.88,SSE,150,0.0,0.0,89,0.00,,,0.00,0,Wunderground v.1.15,2013-04-30 05:04:00,
2013-04-30 00:09:00,64.3,61.0,29.88,SSE,150,0.0,0.0,89,0.00,,,0.00,0,Wunderground v.1.15,2013-04-30 05:09:00,
2013-04-30 00:14:00,64.2,61.2,29.88,SSE,150,0.0,0.0,90,0.00,,,0.00,0,Wunderground v.1.15,2013-04-30 05:14:00,
2013-04-30 00:19:00,64.1,61.1,29.88,SSE,150,0.0,0.0,90,0.00,,,0.00,0,Wunderground v.1.15,2013-04-30 05:19:00,
2013-04-30 00:24:00,64.0,61.0,29.88,SSE,150,0.0,0.0,90,0.00,,,0.00,0,Wunderground v.1.15,2013-04-30 05:24:00,
2013-04-30 00:30:00,63.8,60.8,29.88,SSE,150,0.0,0.0,90,0.00,,,0.00,0,Wunderground v.1.15,2013-04-30 05:30:00,
2013-04-30 00:35:00,63.7,61.0,29.88,SSE,150,0.0,0.0,91,0.00,,,0.00,0,Wunderground v.1.15,2013-04-30 05:35:00,
2013-04-30 00:40:00,63.7,61.3,29.88,SSE,150,0.0,0.0,92,0.00,,,0.00,0,Wunderground v.1.15,2013-04-30 05:40:00,
2013-04-30 00:45:00,63.7,61.3,29.88,SSE,150,0.0,0.0,92,0.00,,,0.00,0,Wunderground v.1.15,2013-04-30 05:45:00,
2013-04-30 00:51:00,63.7,61.3,29.88,SSE,150,0.0,0.0,92,0.00,,,0.00,0,Wunderground v.1.15,2013-04-30 05:51:00,
2013-04-30 00:56:00,63.7,61.3,29.88,SSE,150,0.0,0.0,92,0.00,,,0.00,0,Wunderground v.1.15,2013-04-30 05:56:00,
2013-04-30 01:02:00,63.7,61.6,29.88,SSE,150,0.0,0.0,93,0.00,,,0.00,0,Wunderground v.1.15,2013-04-30 06:02:00,
2013-04-30 01:07:00,63.6,61.5,29.87,SSE,150,0.0,0.0,93,0.00,,,0.00,0,Wunderground v.1.15,2013-04-30 06:07:00,
2013-04-30 01:13:00,63.6,61.5,29.88,SSE,150,0.0,0.0,93,0.00,,,0.00,0,Wunderground v.1.15,2013-04-30 06:13:00,
2013-04-30 01:18:00,63.5,61.7,29.87,SSE,150,0.0,0.0,94,0.00,,,0.00,0,Wunderground v.1.15,2013-04-30 06:18:00,
2013-04-30 01:24:00,63.5,61.7,29.87,SSE,150,0.0,0.0,94,0.00,,,0.00,0,Wunderground v.1.15,2013-04-30 06:24:00,
2013-04-30 01:30:00,63.4,61.6,29.87,SSE,150,0.0,0.0,94,0.00,,,0.00,0,Wunderground v.1.15,2013-04-30 06:30:00,
2013-04-30 01:35:00,63.2,61.4,29.86,SSE,150,0.0,0.0,94,0.00,,,0.00,0,Wunderground v.1.15,2013-04-30 06:35:00,
2013-04-30 01:40:00,63.1,61.3,29.87,SSE,150,0.0,0.0,94,0.00,,,0.00,0,Wunderground v.1.15,2013-04-30 06:40:00,
2013-04-30 01:45:00,63.0,61.2,29.86,SSE,150,0.0,0.0,94,0.00,,,0.00,0,Wunderground v.1.15,2013-04-30 06:45:00,
2013-04-30 01:50:00,63.0,61.5,29.86,SSE,150,0.0,0.0,95,0.00,,,0.00,0,Wunderground v.1.15,2013-04-30 06:50:00,
2013-04-30 01:56:00,63.0,61.5,29.86,SSE,150,0.0,0.0,95,0.00,,,0.00,0,Wunderground v.1.15,2013-04-30 06:56:00,
2013-04-30 02:01:00,62.9,61.4,29.86,SSE,150,0.0,0.0,95,0.00,,,0.00,0,Wunderground v.1.15,2013-04-30 07:01:00,
2013-04-30 02:06:00,62.9,61.4,29.86,SSE,150,0.0,0.0,95,0.00,,,0.00,0,Wunderground v.1.15,2013-04-30 07:06:00,
2013-04-30 02:11:00,62.9,61.4,29.86,SSE,150,0.0,0.0,95,0.00,,,0.00,0,Wunderground v.1.15,2013-04-30 07:11:00,
2013-04-30 02:17:00,62.9,61.7,29.86,SSE,150,0.0,0.0,96,0.00,,,0.00,0,Wunderground v.1.15,2013-04-30 07:17:00,
2013-04-30 02:22:00,62.9,61.7,29.86,SSE,150,0.0,0.0,96,0.00,,,0.00,0,Wunderground v.1.15,2013-04-30 07:22:00,
2013-04-30 02:27:00,62.9,61.7,29.86,SSE,150,0.0,0.0,96,0.00,,,0.00,0,Wunderground v.1.15,2013-04-30 07:27:00,
2013-04-30 02:32:00,62.9,61.7,29.86,SSE,150,0.0,0.0,96,0.00,,,0.00,0,Wunderground v.1.15,2013-04-30 07:32:00,
2013-04-30 02:37:00,62.9,61.7,29.86,SSE,150,0.0,0.0,96,0.00,,,0.00,0,Wunderground v.1.15,2013-04-30 07:37:00,
2013-04-30 02:43:00,62.8,61.6,29.86,SSE,150,0.0,0.0,96,0.00,,,0.00,0,Wunderground v.1.15,2013-04-30 07:43:00,
2013-04-30 02:48:00,62.7,61.5,29.85,SSE,150,0.0,0.0,96,0.00,,,0.00,0,Wunderground v.1.15,2013-04-30 07:48:00,
2013-04-30 02:53:00,62.6,61.4,29.85,SSE,150,0.0,0.0,96,0.00,,,0.00,0,Wunderground v.1.15,2013-04-30 07:53:00,
2013-04-30 02:58:00,62.5,61.3,29.85,SSE,150,0.0,0.0,96,0.00,,,0.00,0,Wunderground v.1.15,2013-04-30 07:58:00,
2013-04-30 03:03:00,62.5,61.3,29.85,SSE,150,0.0,0.0,96,0.00,,,0.00,0,Wunderground v.1.15,2013-04-30 08:03:00,
2013-04-30 03:09:00,62.6,61.7,29.86,SSE,150,0.0,0.0,97,0.00,,,0.00,0,Wunderground v.1.15,2013-04-30 08:09:00,
2013-04-30 03:14:00,62.7,61.8,29.86,SSE,150,0.0,0.0,97,0.00,,,0.00,0,Wunderground v.1.15,2013-04-30 08:14:00,
2013-04-30 03:19:00,62.6,61.7,29.86,SSE,150,0.0,0.0,97,0.00,,,0.00,0,Wunderground v.1.15,2013-04-30 08:19:00,
2013-04-30 03:25:00,62.7,61.8,29.86,SSE,150,0.0,0.0,97,0.00,,,0.00,0,Wunderground v.1.15,2013-04-30 08:25:00,
2013-04-30 03:30:00,62.8,61.9,29.86,SSE,150,0.0,0.0,97,0.00,,,0.00,0,Wunderground v.1.15,2013-04-30 08:30:00,
2013-04-30 03:35:00,62.8,61.9,29.85,SSE,150,0.0,0.0,97,0.00,,,0.00,0,Wunderground v.1.15,2013-04-30 08:35:00,
2013-04-30 03:40:00,63.0,62.1,29.85,SSE,150,0.0,0.0,97,0.00,,,0.00,0,Wunderground v.1.15,2013-04-30 08:40:00,
2013-04-30 03:46:00,63.0,62.1,29.85,SSE,150,0.0,0.0,97,0.00,,,0.00,0,Wunderground v.1.15,2013-04-30 08:46:00,
2013-04-30 03:51:00,63.2,62.3,29.85,SSE,150,0.0,0.0,97,0.00,,,0.00,0,Wunderground v.1.15,2013-04-30 08:51:00,
2013-04-30 03:56:00,63.4,62.8,29.85,SSE,150,0.0,0.0,98,0.00,,,0.00,0,Wunderground v.1.15,2013-04-30 08:56:00,
2013-04-30 04:01:00,63.4,62.5,29.85,SSE,150,0.0,0.0,97,0.00,,,0.00,0,Wunderground v.1.15,2013-04-30 09:01:00,
2013-04-30 04:07:00,63.4,62.5,29.85,SSE,150,0.0,0.0,97,0.00,,,0.00,0,Wunderground v.1.15,2013-04-30 09:07:00,
2013-04-30 04:13:00,63.4,62.5,29.85,SSE,150,0.0,0.0,97,0.00,,,0.00,0,Wunderground v.1.15,2013-04-30 09:13:00,
2013-04-30 04:18:00,63.2,62.3,29.85,SSE,150,0.0,0.0,97,0.00,,,0.00,0,Wunderground v.1.15,2013-04-30 09:18:00,
2013-04-30 04:23:00,63.2,62.3,29.85,SSE,150,0.0,0.0,97,0.00,,,0.00,0,Wunderground v.1.15,2013-04-30 09:23:00,
2013-04-30 04:28:00,63.2,62.3,29.85,SSE,150,0.0,0.0,97,0.00,,,0.00,0,Wunderground v.1.15,2013-04-30 09:28:00,
2013-04-30 04:33:00,63.2,62.3,29.85,SSE,150,0.0,0.0,97,0.00,,,0.00,0,Wunderground v.1.15,2013-04-30 09:33:00,
2013-04-30 04:39:00,63.2,62.3,29.85,SSE,150,0.0,0.0,97,0.00,,,0.00,0,Wunderground v.1.15,2013-04-30 09:39:00,
2013-04-30 04:44:00,63.2,62.3,29.85,SSE,150,0.0,0.0,97,0.00,,,0.00,0,Wunderground v.1.15,2013-04-30 09:44:00,
2013-04-30 04:49:00,63.2,62.3,29.85,SSE,150,0.0,0.0,97,0.00,,,0.00,0,Wunderground v.1.15,2013-04-30 09:49:00,
2013-04-30 04:54:00,63.2,62.3,29.85,SSE,150,0.0,0.0,97,0.00,,,0.00,0,Wunderground v.1.15,2013-04-30 09:54:00,
2013-04-30 04:59:00,63.3,62.7,29.85,SSE,150,0.0,0.0,98,0.00,,,0.00,0,Wunderground v.1.15,2013-04-30 09:59:00,
2013-04-30 05:05:00,63.2,62.3,29.85,SSE,150,0.0,0.0,97,0.00,,,0.00,0,Wunderground v.1.15,2013-04-30 10:05:00,
2013-04-30 05:10:00,63.2,62.3,29.85,SSE,150,0.0,0.0,97,0.00,,,0.00,0,Wunderground v.1.15,2013-04-30 10:10:00,
2013-04-30 05:15:00,63.2,62.3,29.85,SSE,150,0.0,0.0,97,0.00,,,0.00,0,Wunderground v.1.15,2013-04-30 10:15:00,
2013-04-30 05:21:00,63.2,62.3,29.86,SSE,150,0.0,0.0,97,0.00,,,0.00,0,Wunderground v.1.15,2013-04-30 10:21:00,
2013-04-30 05:27:00,63.2,62.6,29.86,SSE,150,0.0,0.0,98,0.00,,,0.00,0,Wunderground v.1.15,2013-04-30 10:27:00,
2013-04-30 05:32:00,63.2,62.6,29.86,SSE,150,0.0,0.0,98,0.00,,,0.00,0,Wunderground v.1.15,2013-04-30 10:32:00,
2013-04-30 05:37:00,63.2,62.6,29.86,SSE,150,0.0,0.0,98,0.00,,,0.00,0,Wunderground v.1.15,2013-04-30 10:37:00,
2013-04-30 05:42:00,63.2,62.6,29.86,SSE,150,0.0,0.0,98,0.00,,,0.00,0,Wunderground v.1.15,2013-04-30 10:42:00,
2013-04-30 05:48:00,63.2,62.6,29.86,SSE,150,0.0,0.0,98,0.00,,,0.00,0,Wunderground v.1.15,2013-04-30 10:48:00,
2013-04-30 05:54:00,63.2,62.6,29.86,SSE,150,0.0,0.0,98,0.00,,,0.00,0,Wunderground v.1.15,2013-04-30 10:54:00,
2013-04-30 05:59:00,63.3,62.7,29.86,SSE,150,0.0,0.0,98,0.00,,,0.00,0,Wunderground v.1.15,2013-04-30 10:59:00,
2013-04-30 06:04:00,63.3,62.7,29.87,SSE,150,0.0,0.0,98,0.00,,,0.00,0,Wunderground v.1.15,2013-04-30 11:04:00,
2013-04-30 06:10:00,63.4,62.8,29.87,SSE,150,0.0,0.0,98,0.00,,,0.00,0,Wunderground v.1.15,2013-04-30 11:10:00,
2013-04-30 06:15:00,63.5,62.9,29.87,SSE,150,0.0,0.0,98,0.00,,,0.00,0,Wunderground v.1.15,2013-04-30 11:15:00,
2013-04-30 06:20:00,63.6,63.0,29.87,SSE,150,0.0,0.0,98,0.00,,,0.00,0,Wunderground v.1.15,2013-04-30 11:20:00,
2013-04-30 06:25:00,63.6,63.0,29.87,SSE,150,0.0,0.0,98,0.00,,,0.00,5,Wunderground v.1.15,2013-04-30 11:25:00,
2013-04-30 06:30:00,63.7,63.1,29.87,SSE,150,0.0,0.0,98,0.00,,,0.00,9,Wunderground v.1.15,2013-04-30 11:30:00,
2013-04-30 06:36:00,63.7,63.1,29.87,SSE,150,0.0,0.0,98,0.00,,,0.00,14,Wunderground v.1.15,2013-04-30 11:36:00,
2013-04-30 06:41:00,63.7,63.1,29.87,SSE,150,0.0,0.0,98,0.00,,,0.00,19,Wunderground v.1.15,2013-04-30 11:41:00,
2013-04-30 06:46:00,63.8,63.2,29.87,SSE,150,0.0,0.0,98,0.00,,,0.00,23,Wunderground v.1.15,2013-04-30 11:46:00,
2013-04-30 06:52:00,63.9,63.3,29.87,SSE,150,0.0,0.0,98,0.00,,,0.00,28,Wunderground v.1.15,2013-04-30 11:52:00,
2013-04-30 06:57:00,63.9,63.3,29.87,SSE,150,0.0,1.0,98,0.00,,,0.00,40,Wunderground v.1.15,2013-04-30 11:57:00,
2013-04-30 07:02:00,64.0,63.4,29.88,SSE,150,0.0,0.0,98,0.00,,,0.00,35,Wunderground v.1.15,2013-04-30 12:02:00,
2013-04-30 07:07:00,64.1,63.5,29.88,SSE,150,0.0,0.0,98,0.00,,,0.00,47,Wunderground v.1.15,2013-04-30 12:07:00,
2013-04-30 07:13:00,64.3,63.7,29.88,SSE,150,0.0,1.0,98,0.00,,,0.00,42,Wunderground v.1.15,2013-04-30 12:13:00,
2013-04-30 07:18:00,64.3,63.7,29.88,SSE,149,0.0,2.0,98,0.00,,,0.00,49,Wunderground v.1.15,2013-04-30 12:18:00,
2013-04-30 07:23:00,64.4,63.8,29.87,SSE,148,0.0,0.0,98,0.00,,,0.00,56,Wunderground v.1.15,2013-04-30 12:23:00,
2013-04-30 07:29:00,64.5,63.9,29.87,SSE,148,0.0,0.0,98,0.00,,,0.00,62,Wunderground v.1.15,2013-04-30 12:29:00,
2013-04-30 07:34:00,64.6,64.0,29.88,SE,139,0.0,0.0,98,0.00,,,0.00,70,Wunderground v.1.15,2013-04-30 12:34:00,
2013-04-30 07:39:00,64.7,64.1,29.88,SE,139,0.0,0.0,98,0.00,,,0.00,65,Wunderground v.1.15,2013-04-30 12:39:00,
2013-04-30 07:44:00,64.7,64.1,29.88,SE,139,0.0,2.0,98,0.00,,,0.00,93,Wunderground v.1.15,2013-04-30 12:44:00,
2013-04-30 07:49:00,64.7,64.1,29.88,SE,139,0.0,2.0,98,0.00,,,0.00,83,Wunderground v.1.15,2013-04-30 12:49:00,
2013-04-30 07:55:00,64.5,63.9,29.88,ENE,64,1.0,6.0,98,0.00,,,0.00,93,Wunderground v.1.15,2013-04-30 12:55:00,
2013-04-30 08:00:00,64.4,63.8,29.88,ENE,64,1.0,1.0,98,0.00,,,0.00,107,Wunderground v.1.15,2013-04-30 13:00:00,
2013-04-30 08:05:00,64.4,63.8,29.89,ENE,64,0.0,1.0,98,0.00,,,0.00,102,Wunderground v.1.15,2013-04-30 13:05:00,
2013-04-30 08:10:00,64.4,63.8,29.88,East,83,0.0,0.0,98,0.00,,,0.00,123,Wunderground v.1.15,2013-04-30 13:10:00,
2013-04-30 08:16:00,64.5,63.9,29.88,East,81,0.0,1.0,98,0.00,,,0.00,123,Wunderground v.1.15,2013-04-30 13:16:00,
2013-04-30 08:21:00,64.5,63.9,29.88,East,97,0.0,3.0,98,0.00,,,0.00,121,Wunderground v.1.15,2013-04-30 13:21:00,
2013-04-30 08:26:00,64.5,63.9,29.88,East,93,0.0,3.0,98,0.00,,,0.00,132,Wunderground v.1.15,2013-04-30 13:26:00,
2013-04-30 08:31:00,64.8,64.2,29.88,East,93,0.0,0.0,98,0.00,,,0.00,149,Wunderground v.1.15,2013-04-30 13:31:00,
2013-04-30 08:37:00,65.0,64.4,29.88,East,89,0.0,0.0,98,0.00,,,0.00,142,Wunderground v.1.15,2013-04-30 13:37:00,
2013-04-30 08:42:00,65.2,64.6,29.88,East,88,0.0,0.0,98,0.00,,,0.00,141,Wunderground v.1.15,2013-04-30 13:42:00,
2013-04-30 08:47:00,65.3,64.7,29.88,East,92,0.0,0.0,98,0.00,,,0.00,218,Wunderground v.1.15,2013-04-30 13:47:00,
2013-04-30 08:53:00,65.4,64.8,29.88,SSE,152,0.0,0.0,98,0.00,,,0.00,128,Wunderground v.1.15,2013-04-30 13:53:00,
2013-04-30 08:58:00,65.4,64.8,29.89,SE,136,0.0,4.0,98,0.00,,,0.00,181,Wunderground v.1.15,2013-04-30 13:58:00,
2013-04-30 09:03:00,65.6,65.0,29.89,SE,136,0.0,0.0,98,0.00,,,0.00,151,Wunderground v.1.15,2013-04-30 14:03:00,
2013-04-30 09:08:00,65.7,65.1,29.89,SE,133,0.0,0.0,98,0.00,,,0.00,146,Wunderground v.1.15,2013-04-30 14:08:00,
2013-04-30 09:13:00,65.9,65.3,29.89,SE,130,0.0,0.0,98,0.00,,,0.00,146,Wunderground v.1.15,2013-04-30 14:13:00,
2013-04-30 09:18:00,66.0,65.4,29.89,SE,129,0.0,5.0,98,0.00,,,0.00,165,Wunderground v.1.15,2013-04-30 14:18:00,
2013-04-30 09:23:00,66.1,65.5,29.89,SE,136,0.0,2.0,98,0.00,,,0.00,155,Wunderground v.1.15,2013-04-30 14:23:00,
2013-04-30 09:29:00,66.2,65.6,29.90,ESE,108,1.0,6.0,98,0.00,,,0.00,181,Wunderground v.1.15,2013-04-30 14:29:00,
2013-04-30 09:34:00,66.4,65.8,29.90,East,85,1.0,1.0,98,0.00,,,0.00,174,Wunderground v.1.15,2013-04-30 14:34:00,
2013-04-30 09:39:00,66.7,66.1,29.90,East,100,0.0,5.0,98,0.00,,,0.00,176,Wunderground v.1.15,2013-04-30 14:39:00,
2013-04-30 09:44:00,66.8,66.2,29.90,ENE,77,0.0,0.0,98,0.00,,,0.00,185,Wunderground v.1.15,2013-04-30 14:44:00,
2013-04-30 09:49:00,66.9,66.3,29.90,ESE,104,1.0,1.0,98,0.00,,,0.00,179,Wunderground v.1.15,2013-04-30 14:49:00,
2013-04-30 09:54:00,67.0,66.4,29.89,SE,144,1.0,4.0,98,0.00,,,0.00,209,Wunderground v.1.15,2013-04-30 14:54:00,
2013-04-30 10:00:00,67.4,66.8,29.89,ESE,121,1.0,1.0,98,0.00,,,0.00,232,Wunderground v.1.15,2013-04-30 15:00:00,
2013-04-30 10:05:00,67.5,66.9,29.89,East,96,1.0,1.0,98,0.00,,,0.00,213,Wunderground v.1.15,2013-04-30 15:05:00,
2013-04-30 10:10:00,67.7,67.1,29.89,East,97,0.0,0.0,98,0.00,,,0.00,417,Wunderground v.1.15,2013-04-30 15:10:00,
2013-04-30 10:16:00,68.2,67.3,29.89,SE,142,0.0,0.0,97,0.00,,,0.00,360,Wunderground v.1.15,2013-04-30 15:16:00,
2013-04-30 10:21:00,68.7,67.5,29.89,ESE,122,0.0,0.0,96,0.00,,,0.00,330,Wunderground v.1.15,2013-04-30 15:21:00,
2013-04-30 10:26:00,68.9,67.4,29.89,SE,133,0.0,0.0,95,0.00,,,0.00,287,Wunderground v.1.15,2013-04-30 15:26:00,
2013-04-30 10:31:00,69.2,67.4,29.89,East,84,0.0,0.0,94,0.00,,,0.00,297,Wunderground v.1.15,2013-04-30 15:31:00,
2013-04-30 10:37:00,69.5,67.4,29.89,ESE,107,0.0,0.0,93,0.00,,,0.00,339,Wunderground v.1.15,2013-04-30 15:37:00,
2013-04-30 10:42:00,69.7,67.0,29.89,SE,130,0.0,1.0,91,0.00,,,0.00,292,Wunderground v.1.15,2013-04-30 15:42:00,
2013-04-30 10:47:00,69.8,67.1,29.89,SE,128,0.0,1.0,91,0.00,,,0.00,288,Wunderground v.1.15,2013-04-30 15:47:00,
2013-04-30 10:53:00,70.1,67.3,29.89,ENE,78,0.0,0.0,91,0.00,,,0.00,388,Wunderground v.1.15,2013-04-30 15:53:00,
2013-04-30 10:58:00,70.4,67.6,29.89,ESE,118,0.0,2.0,91,0.00,,,0.00,373,Wunderground v.1.15,2013-04-30 15:58:00,
2013-04-30 11:07:00,71.1,67.7,29.88,ESE,106,0.0,0.0,89,0.00,,,0.00,380,Wunderground v.1.15,2013-04-30 16:07:00,
2013-04-30 11:12:00,71.4,67.7,29.88,ESE,115,0.0,4.0,88,0.00,,,0.00,490,Wunderground v.1.15,2013-04-30 16:12:00,
2013-04-30 11:18:00,71.6,67.5,29.89,ESE,113,1.0,4.0,87,0.00,,,0.00,290,Wunderground v.1.15,2013-04-30 16:18:00,
2013-04-30 11:23:00,71.9,67.8,29.88,East,81,0.0,3.0,87,0.00,,,0.00,512,Wunderground v.1.15,2013-04-30 16:23:00,
2013-04-30 11:28:00,72.3,67.5,29.88,SE,131,1.0,7.0,85,0.00,,,0.00,250,Wunderground v.1.15,2013-04-30 16:28:00,
2013-04-30 11:33:00,72.4,68.0,29.89,SE,129,1.0,1.0,86,0.00,,,0.00,364,Wunderground v.1.15,2013-04-30 16:33:00,
2013-04-30 11:38:00,72.7,68.3,29.89,SE,129,0.0,1.0,86,0.00,,,0.00,497,Wunderground v.1.15,2013-04-30 16:38:00,
2013-04-30 11:44:00,73.0,67.9,29.89,East,98,0.0,0.0,84,0.00,,,0.00,329,Wunderground v.1.15,2013-04-30 16:44:00,
2013-04-30 11:49:00,73.0,67.5,29.89,ESE,107,0.0,1.0,83,0.00,,,0.00,380,Wunderground v.1.15,2013-04-30 16:49:00,
2013-04-30 11:54:00,73.0,67.5,29.89,ESE,111,0.0,0.0,83,0.00,,,0.00,439,Wunderground v.1.15,2013-04-30 16:54:00,
2013-04-30 12:00:00,73.1,68.0,29.89,SE,127,0.0,0.0,84,0.00,,,0.00,294,Wunderground v.1.15,2013-04-30 17:00:00,
2013-04-30 12:05:00,73.0,67.2,29.89,SE,141,0.0,4.0,82,0.00,,,0.00,294,Wunderground v.1.15,2013-04-30 17:05:00,
2013-04-30 12:10:00,73.0,67.5,29.89,ESE,104,0.0,0.0,83,0.00,,,0.00,527,Wunderground v.1.15,2013-04-30 17:10:00,
2013-04-30 12:15:00,73.2,67.4,29.89,SSE,148,0.0,7.0,82,0.00,,,0.00,387,Wunderground v.1.15,2013-04-30 17:15:00,
2013-04-30 12:21:00,73.3,67.5,29.89,SSE,155,1.0,1.0,82,0.00,,,0.00,457,Wunderground v.1.15,2013-04-30 17:21:00,
2013-04-30 12:26:00,73.5,67.7,29.88,SSE,147,0.0,1.0,82,0.00,,,0.00,308,Wunderground v.1.15,2013-04-30 17:26:00,
2013-04-30 12:31:00,73.5,66.9,29.88,SE,136,0.0,0.0,80,0.00,,,0.00,276,Wunderground v.1.15,2013-04-30 17:31:00,
2013-04-30 12:37:00,73.5,67.7,29.88,SSE,152,1.0,1.0,82,0.00,,,0.00,332,Wunderground v.1.15,2013-04-30 17:37:00,
2013-04-30 12:42:00,73.5,67.7,29.88,ESE,123,0.0,1.0,82,0.00,,,0.00,482,Wunderground v.1.15,2013-04-30 17:42:00,
2013-04-30 12:47:00,73.8,68.0,29.87,ENE,60,0.0,5.0,82,0.00,,,0.00,534,Wunderground v.1.15,2013-04-30 17:47:00,
2013-04-30 12:52:00,74.0,67.4,29.87,SE,125,1.0,1.0,80,0.00,,,0.00,563,Wunderground v.1.15,2013-04-30 17:52:00,
2013-04-30 12:58:00,74.1,67.5,29.87,ESE,117,1.0,6.0,80,0.00,,,0.00,550,Wunderground v.1.15,2013-04-30 17:58:00,
2013-04-30 13:03:00,74.3,67.0,29.86,South,182,0.0,1.0,78,0.00,,,0.00,543,Wunderground v.1.15,2013-04-30 18:03:00,
2013-04-30 13:08:00,74.4,67.1,29.86,SE,140,0.0,4.0,78,0.00,,,0.00,534,Wunderground v.1.15,2013-04-30 18:08:00,
2013-04-30 13:13:00,74.5,67.2,29.86,East,98,0.0,0.0,78,0.00,,,0.00,545,Wunderground v.1.15,2013-04-30 18:13:00,
2013-04-30 13:19:00,74.6,67.3,29.86,ESE,119,0.0,0.0,78,0.00,,,0.00,533,Wunderground v.1.15,2013-04-30 18:19:00,
2013-04-30 13:24:00,74.7,67.4,29.86,SSE,165,0.0,2.0,78,0.00,,,0.00,504,Wunderground v.1.15,2013-04-30 18:24:00,
2013-04-30 13:29:00,74.5,67.6,29.85,East,81,2.0,7.0,79,0.00,,,0.00,476,Wunderground v.1.15,2013-04-30 18:29:00,
2013-04-30 13:35:00,74.5,67.6,29.85,ENE,73,2.0,2.0,79,0.00,,,0.00,492,Wunderground v.1.15,2013-04-30 18:35:00,
2013-04-30 13:40:00,74.5,67.2,29.85,ESE,112,1.0,1.0,78,0.00,,,0.00,457,Wunderground v.1.15,2013-04-30 18:40:00,
2013-04-30 13:46:00,74.9,67.9,29.85,ESE,114,1.0,1.0,79,0.00,,,0.00,446,Wunderground v.1.15,2013-04-30 18:46:00,
2013-04-30 13:51:00,75.1,67.8,29.84,ESE,115,0.0,0.0,78,0.00,,,0.00,441,Wunderground v.1.15,2013-04-30 18:51:00,
2013-04-30 13:56:00,75.3,68.0,29.84,SE,138,0.0,0.0,78,0.00,,,0.00,439,Wunderground v.1.15,2013-04-30 18:56:00,
2013-04-30 14:02:00,75.3,68.0,29.84,ESE,103,0.0,3.0,78,0.00,,,0.00,350,Wunderground v.1.15,2013-04-30 19:02:00,
2013-04-30 14:07:00,75.1,67.8,29.84,East,100,0.0,3.0,78,0.00,,,0.00,343,Wunderground v.1.15,2013-04-30 19:07:00,
2013-04-30 14:12:00,75.1,68.5,29.85,SE,138,0.0,0.0,80,0.00,,,0.00,294,Wunderground v.1.15,2013-04-30 19:12:00,
2013-04-30 14:18:00,75.2,67.9,29.85,SE,142,0.0,5.0,78,0.00,,,0.00,290,Wunderground v.1.15,2013-04-30 19:18:00,
2013-04-30 14:23:00,75.1,68.1,29.85,SE,138,0.0,0.0,79,0.00,,,0.00,322,Wunderground v.1.15,2013-04-30 19:23:00,
2013-04-30 14:28:00,75.1,68.5,29.85,ESE,119,0.0,0.0,80,0.00,,,0.00,327,Wunderground v.1.15,2013-04-30 19:28:00,
2013-04-30 14:33:00,75.1,67.8,29.85,SE,125,0.0,0.0,78,0.00,,,0.00,313,Wunderground v.1.15,2013-04-30 19:33:00,
2013-04-30 14:38:00,75.2,68.2,29.85,SE,129,0.0,0.0,79,0.00,,,0.00,318,Wunderground v.1.15,2013-04-30 19:38:00,
2013-04-30 14:44:00,75.1,67.8,29.85,SE,143,0.0,1.0,78,0.00,,,0.00,304,Wunderground v.1.15,2013-04-30 19:44:00,
2013-04-30 14:49:00,75.1,68.1,29.84,ESE,119,0.0,1.0,79,0.00,,,0.00,281,Wunderground v.1.15,2013-04-30 19:49:00,
2013-04-30 14:54:00,75.2,68.2,29.84,ESE,119,0.0,0.0,79,0.00,,,0.00,251,Wunderground v.1.15,2013-04-30 19:54:00,
2013-04-30 14:59:00,75.2,68.2,29.84,ESE,119,0.0,0.0,79,0.00,,,0.00,214,Wunderground v.1.15,2013-04-30 19:59:00,
2013-04-30 15:10:00,75.0,68.4,29.84,ESE,119,0.0,0.0,80,0.00,,,0.00,209,Wunderground v.1.15,2013-04-30 20:10:00,
2013-04-30 15:29:00,74.7,68.5,29.83,ESE,119,0.0,0.0,81,0.00,,,0.00,83,Wunderground v.1.15,2013-04-30 20:29:00,
2013-04-30 15:35:00,74.5,69.0,29.83,ESE,119,0.0,0.0,83,1.51,,,0.03,37,Wunderground v.1.15,2013-04-30 20:35:00,
2013-04-30 15:40:00,73.1,68.0,29.83,NE,52,1.0,1.0,84,0.47,,,0.13,19,Wunderground v.1.15,2013-04-30 20:40:00,
2013-04-30 15:45:00,70.7,66.0,29.85,SSE,150,3.0,13.0,85,2.17,,,0.23,7,Wunderground v.1.15,2013-04-30 20:45:00,
2013-04-30 15:50:00,68.6,65.2,29.85,WNW,283,4.0,4.0,89,0.64,,,0.44,12,Wunderground v.1.15,2013-04-30 20:50:00,
2013-04-30 18:21:00,65.7,64.8,29.84,SSW,201,0.0,0.0,97,0.00,,,1.23,19,Wunderground v.1.15,2013-04-30 23:21:00,
2013-04-30 18:27:00,65.7,64.8,29.84,SSW,201,0.0,0.0,97,0.00,,,1.23,21,Wunderground v.1.15,2013-04-30 23:27:00,
2013-04-30 18:32:00,65.7,64.8,29.84,ENE,75,0.0,1.0,97,0.00,,,1.23,21,Wunderground v.1.15,2013-04-30 23:32:00,
2013-04-30 18:38:00,65.8,64.9,29.84,ENE,69,1.0,3.0,97,0.00,,,1.23,21,Wunderground v.1.15,2013-04-30 23:38:00,
2013-04-30 18:43:00,65.9,65.3,29.84,ENE,69,0.0,3.0,98,0.00,,,1.23,25,Wunderground v.1.15,2013-04-30 23:43:00,
2013-04-30 18:48:00,65.9,65.3,29.83,ENE,69,0.0,3.0,98,0.00,,,1.23,26,Wunderground v.1.15,2013-04-30 23:48:00,
2013-04-30 18:53:00,65.8,64.9,29.83,ENE,69,0.0,0.0,97,0.00,,,1.23,26,Wunderground v.1.15,2013-04-30 23:53:00,
2013-04-30 18:58:00,65.7,64.8,29.83,ENE,69,0.0,0.0,97,0.00,,,1.23,23,Wunderground v.1.15,2013-04-30 23:58:00,
2013-04-30 19:04:00,65.7,64.8,29.83,ENE,69,0.0,0.0,97,0.00,,,1.23,16,Wunderground v.1.15,2013-05-01 00:04:00,
2013-04-30 19:09:00,65.7,64.8,29.84,East,100,0.0,6.0,97,0.00,,,1.23,14,Wunderground v.1.15,2013-05-01 00:09:00,
2013-04-30 19:14:00,65.7,64.8,29.84,East,97,0.0,0.0,97,0.00,,,1.23,12,Wunderground v.1.15,2013-05-01 00:14:00,
2013-04-30 19:19:00,65.7,64.8,29.84,NE,44,0.0,4.0,97,0.00,,,1.23,11,Wunderground v.1.15,2013-05-01 00:19:00,
2013-04-30 19:24:00,65.6,64.7,29.84,ENE,66,1.0,1.0,97,0.00,,,1.23,9,Wunderground v.1.15,2013-05-01 00:24:00,
2013-04-30 19:29:00,65.5,64.6,29.84,East,100,0.0,1.0,97,0.00,,,1.23,5,Wunderground v.1.15,2013-05-01 00:29:00,
2013-04-30 19:35:00,65.4,64.5,29.84,East,97,0.0,0.0,97,0.00,,,1.23,0,Wunderground v.1.15,2013-05-01 00:35:00,
2013-04-30 19:41:00,65.3,64.4,29.84,East,94,0.0,0.0,97,0.00,,,1.23,0,Wunderground v.1.15,2013-05-01 00:41:00,
2013-04-30 19:46:00,65.3,64.4,29.85,ENE,76,0.0,2.0,97,0.00,,,1.23,0,Wunderground v.1.15,2013-05-01 00:46:00,
2013-04-30 19:51:00,65.3,64.7,29.84,ENE,75,0.0,0.0,98,0.00,,,1.23,0,Wunderground v.1.15,2013-05-01 00:51:00,
2013-04-30 19:56:00,65.3,64.7,29.84,ENE,76,0.0,0.0,98,0.00,,,1.23,0,Wunderground v.1.15,2013-05-01 00:56:00,
2013-04-30 20:01:00,65.2,64.6,29.85,ENE,77,0.0,0.0,98,0.00,,,1.23,0,Wunderground v.1.15,2013-05-01 01:01:00,
2013-04-30 20:07:00,65.2,64.6,29.85,ENE,77,0.0,0.0,98,0.00,,,1.23,0,Wunderground v.1.15,2013-05-01 01:07:00,
2013-04-30 20:12:00,65.1,64.2,29.85,East,86,0.0,0.0,97,0.00,,,1.23,0,Wunderground v.1.15,2013-05-01 01:12:00,
2013-04-30 20:17:00,65.0,64.1,29.85,East,86,0.0,0.0,97,0.00,,,1.23,0,Wunderground v.1.15,2013-05-01 01:17:00,
2013-04-30 20:22:00,65.0,64.1,29.85,East,86,0.0,0.0,97,0.00,,,1.23,0,Wunderground v.1.15,2013-05-01 01:22:00,
2013-04-30 20:28:00,64.9,64.0,29.85,East,86,0.0,0.0,97,0.00,,,1.23,0,Wunderground v.1.15,2013-05-01 01:28:00,
2013-04-30 20:34:00,64.9,64.3,29.85,East,86,0.0,0.0,98,0.00,,,1.23,0,Wunderground v.1.15,2013-05-01 01:34:00,
2013-04-30 20:39:00,64.8,64.2,29.85,East,86,0.0,0.0,98,0.00,,,1.23,0,Wunderground v.1.15,2013-05-01 01:39:00,
2013-04-30 20:44:00,64.8,64.2,29.85,East,86,0.0,0.0,98,0.00,,,1.23,0,Wunderground v.1.15,2013-05-01 01:44:00,
2013-04-30 20:49:00,64.8,64.2,29.85,East,86,0.0,0.0,98,0.00,,,1.23,0,Wunderground v.1.15,2013-05-01 01:49:00,
2013-04-30 20:54:00,64.7,64.1,29.85,East,86,0.0,0.0,98,0.00,,,1.23,0,Wunderground v.1.15,2013-05-01 01:54:00,
2013-04-30 21:00:00,64.8,64.2,29.85,East,86,0.0,0.0,98,0.00,,,1.23,0,Wunderground v.1.15,2013-05-01 02:00:00,
2013-04-30 21:05:00,64.7,64.1,29.85,East,86,0.0,0.0,98,0.00,,,1.23,0,Wunderground v.1.15,2013-05-01 02:05:00,
2013-04-30 21:10:00,64.7,64.1,29.85,East,86,0.0,0.0,98,0.00,,,1.23,0,Wunderground v.1.15,2013-05-01 02:10:00,
2013-04-30 21:16:00,64.7,64.1,29.86,East,86,0.0,0.0,98,0.00,,,1.23,0,Wunderground v.1.15,2013-05-01 02:16:00,
2013-04-30 21:22:00,64.6,64.0,29.86,East,86,0.0,0.0,98,0.00,,,1.23,0,Wunderground v.1.15,2013-05-01 02:22:00,
2013-04-30 21:27:00,64.6,64.0,29.86,East,86,0.0,2.0,98,0.00,,,1.23,0,Wunderground v.1.15,2013-05-01 02:27:00,
2013-04-30 21:32:00,64.5,63.6,29.87,East,84,0.0,2.0,97,0.00,,,1.23,0,Wunderground v.1.15,2013-05-01 02:32:00,
2013-04-30 21:38:00,64.5,63.6,29.87,East,82,0.0,2.0,97,0.00,,,1.23,0,Wunderground v.1.15,2013-05-01 02:38:00,
2013-04-30 21:43:00,64.5,63.6,29.87,East,84,0.0,2.0,97,0.00,,,1.23,0,Wunderground v.1.15,2013-05-01 02:43:00,
2013-04-30 21:48:00,64.5,63.6,29.88,East,84,0.0,2.0,97,0.00,,,1.23,0,Wunderground v.1.15,2013-05-01 02:48:00,
2013-04-30 21:53:00,64.5,63.9,29.88,ESE,118,0.0,0.0,98,0.00,,,1.23,0,Wunderground v.1.15,2013-05-01 02:53:00,
2013-04-30 21:59:00,64.6,64.0,29.88,ESE,117,0.0,0.0,98,0.00,,,1.23,0,Wunderground v.1.15,2013-05-01 02:59:00,
2013-04-30 22:04:00,64.6,64.0,29.88,ENE,63,0.0,9.0,98,0.00,,,1.23,0,Wunderground v.1.15,2013-05-01 03:04:00,
2013-04-30 22:09:00,64.7,64.1,29.88,ENE,73,1.0,9.0,98,0.00,,,1.23,0,Wunderground v.1.15,2013-05-01 03:09:00,
2013-04-30 22:14:00,64.8,64.2,29.88,ENE,73,0.0,1.0,98,0.00,,,1.24,0,Wunderground v.1.15,2013-05-01 03:14:00,
2013-04-30 22:20:00,64.8,64.2,29.88,ESE,111,1.0,1.0,98,0.00,,,1.24,0,Wunderground v.1.15,2013-05-01 03:20:00,
2013-04-30 22:25:00,64.8,64.2,29.88,East,88,1.0,1.0,98,0.00,,,1.24,0,Wunderground v.1.15,2013-05-01 03:25:00,
2013-04-30 22:30:00,64.7,64.1,29.88,East,88,1.0,1.0,98,0.29,,,1.26,0,Wunderground v.1.15,2013-05-01 03:30:00,
2013-04-30 22:36:00,64.6,63.7,29.87,East,86,1.0,1.0,97,0.12,,,1.27,0,Wunderground v.1.15,2013-05-01 03:36:00,
2013-04-30 22:42:00,64.5,63.6,29.87,East,86,0.0,0.0,97,0.08,,,1.27,0,Wunderground v.1.15,2013-05-01 03:42:00,
2013-04-30 22:47:00,64.5,63.6,29.86,NE,46,0.0,0.0,97,0.05,,,1.27,0,Wunderground v.1.15,2013-05-01 03:47:00,
2013-04-30 22:52:00,64.4,63.5,29.86,NE,46,0.0,0.0,97,0.00,,,1.27,0,Wunderground v.1.15,2013-05-01 03:52:00,
2013-04-30 22:58:00,64.4,63.5,29.86,NE,46,0.0,0.0,97,0.00,,,1.27,0,Wunderground v.1.15,2013-05-01 03:58:00,
2013-04-30 23:01:00,64.4,63.5,29.86,NE,46,0.0,0.0,97,0.00,,,1.27,0,Wunderground v.1.15,2013-05-01 04:01:00,
2013-04-30 23:02:00,64.3,63.4,29.86,NE,46,0.0,0.0,97,0.00,,,1.27,0,Wunderground v.1.15,2013-05-01 04:02:00,
2013-04-30 23:03:00,64.3,63.4,29.86,NE,46,0.0,0.0,97,0.00,,,1.27,0,Wunderground v.1.15,2013-05-01 04:03:00,
2013-04-30 23:06:00,64.3,63.4,29.86,NE,46,0.0,0.0,97,0.00,,,1.27,0,Wunderground v.1.15,2013-05-01 04:06:00,
2013-04-30 23:11:00,64.3,63.4,29.86,NE,46,0.0,0.0,97,0.00,,,1.27,0,Wunderground v.1.15,2013-05-01 04:11:00,
2013-04-30 23:12:00,64.3,63.4,29.86,NE,46,0.0,0.0,97,0.00,,,1.27,0,Wunderground v.1.15,2013-05-01 04:12:00,
2013-04-30 23:18:00,64.2,63.3,29.86,NE,46,0.0,0.0,97,0.00,,,1.27,0,Wunderground v.1.15,2013-05-01 04:18:00,
2013-04-30 23:23:00,64.1,63.2,29.86,NE,46,0.0,0.0,97,0.00,,,1.27,0,Wunderground v.1.15,2013-05-01 04:23:00,
2013-04-30 23:28:00,64.1,63.2,29.86,NE,46,0.0,0.0,97,0.00,,,1.27,0,Wunderground v.1.15,2013-05-01 04:28:00,
2013-04-30 23:34:00,64.1,63.5,29.86,NE,46,0.0,0.0,98,0.00,,,1.27,0,Wunderground v.1.15,2013-05-01 04:34:00,
2013-04-30 23:40:00,64.1,63.5,29.86,NE,56,0.0,0.0,98,0.00,,,1.27,0,Wunderground v.1.15,2013-05-01 04:40:00,
2013-04-30 23:45:00,64.1,63.5,29.86,NE,56,0.0,0.0,98,0.00,,,1.27,0,Wunderground v.1.15,2013-05-01 04:45:00,
2013-04-30 23:51:00,64.1,63.5,29.86,NE,56,0.0,0.0,98,0.00,,,1.27,0,Wunderground v.1.15,2013-05-01 04:51:00,
2013-04-30 23:57:00,64.1,63.5,29.86,NE,56,0.0,0.0,98,0.00,,,1.27,0,Wunderground v.1.15,2013-05-01 04:57:00,